createdAt,value
2022-12-28T00:00:48.046Z,5.50
2022-12-28T00:03:37.686Z,5.40
2022-12-28T00:06:26.345Z,5.40
2022-12-28T00:09:14.711Z,5.40
2022-12-28T00:16:08.626Z,5.30
2022-12-28T00:18:59.900Z,5.30
2022-12-28T00:21:48.593Z,5.20
2022-12-28T00:24:36.802Z,5.20
2022-12-28T00:27:25.002Z,5.20
2022-12-28T00:30:14.148Z,5.20
2022-12-28T00:33:02.387Z,5.10
2022-12-28T00:35:55.980Z,5.10
2022-12-28T00:38:44.756Z,5.10
2022-12-28T00:41:32.964Z,5.10
2022-12-28T00:44:21.180Z,5.10
2022-12-28T00:47:09.427Z,5.10
2022-12-28T00:49:57.684Z,5.10
2022-12-28T00:52:47.232Z,5.10
2022-12-28T00:55:36.554Z,5.10
2022-12-28T00:58:24.745Z,5.20
2022-12-28T01:01:14.819Z,5.10
2022-12-28T01:04:03.140Z,5.00
2022-12-28T01:06:51.440Z,5.00
2022-12-28T01:09:41.059Z,4.90
2022-12-28T01:12:36.237Z,4.90
2022-12-28T01:15:26.385Z,4.90
2022-12-28T01:18:14.611Z,4.90
2022-12-28T01:21:09.647Z,4.90
2022-12-28T01:23:59.679Z,4.80
2022-12-28T01:26:49.257Z,4.80
2022-12-28T01:29:37.448Z,4.80
2022-12-28T01:32:25.712Z,4.80
2022-12-28T01:35:13.962Z,4.70
2022-12-28T01:38:02.177Z,4.70
2022-12-28T01:40:50.448Z,4.70
2022-12-28T01:43:42.328Z,4.70
2022-12-28T01:46:38.213Z,4.70
2022-12-28T01:49:32.229Z,4.70
2022-12-28T01:52:25.052Z,4.70
2022-12-28T01:55:17.488Z,4.60
2022-12-28T01:58:10.413Z,4.60
2022-12-28T02:01:00.160Z,4.60
2022-12-28T02:03:48.677Z,4.70
2022-12-28T02:06:37.212Z,4.70
2022-12-28T02:09:30.873Z,4.60
2022-12-28T02:12:19.707Z,4.60
2022-12-28T02:15:09.201Z,4.60
2022-12-28T02:17:59.720Z,4.60
2022-12-28T02:21:09.019Z,4.50
2022-12-28T02:24:27.071Z,4.50
2022-12-28T02:27:23.673Z,4.50
2022-12-28T02:30:14.852Z,4.50
2022-12-28T02:33:08.882Z,4.60
2022-12-28T02:36:00.419Z,4.60
2022-12-28T02:38:54.929Z,4.60
2022-12-28T02:41:44.229Z,4.60
2022-12-28T02:44:49.909Z,4.70
2022-12-28T02:48:01.391Z,4.70
2022-12-28T02:50:52.044Z,4.80
2022-12-28T02:54:03.972Z,4.80
2022-12-28T02:56:56.269Z,4.70
2022-12-28T03:00:02.159Z,4.70
2022-12-28T03:03:00.005Z,4.80
2022-12-28T03:06:19.141Z,4.80
2022-12-28T03:09:14.861Z,4.80
2022-12-28T03:12:07.647Z,4.90
2022-12-28T03:14:59.431Z,4.80
2022-12-28T03:18:05.381Z,4.90
2022-12-28T03:21:16.347Z,4.80
2022-12-28T03:24:26.182Z,4.90
2022-12-28T03:27:33.434Z,4.80
2022-12-28T03:30:40.654Z,4.80
2022-12-28T03:33:29.241Z,4.90
2022-12-28T03:36:27.591Z,4.90
2022-12-28T03:39:23.887Z,4.90
2022-12-28T03:42:35.851Z,4.90
2022-12-28T03:45:46.340Z,5.00
2022-12-28T03:48:37.468Z,5.00
2022-12-28T03:51:29.270Z,5.10
2022-12-28T03:54:18.805Z,5.10
2022-12-28T03:57:17.042Z,5.10
2022-12-28T04:00:06.497Z,5.10
2022-12-28T04:02:54.809Z,5.10
2022-12-28T04:05:43.117Z,5.20
2022-12-28T04:08:32.451Z,5.20
2022-12-28T04:11:20.688Z,5.20
2022-12-28T04:14:11.156Z,5.20
2022-12-28T04:16:59.523Z,5.20
2022-12-28T04:19:47.744Z,5.20
2022-12-28T04:22:35.975Z,5.20
2022-12-28T04:25:24.255Z,5.20
2022-12-28T04:28:12.496Z,5.20
2022-12-28T04:31:03.484Z,5.20
2022-12-28T04:33:51.763Z,5.20
2022-12-28T04:36:40.410Z,5.20
2022-12-28T04:39:28.679Z,5.30
2022-12-28T04:42:36.922Z,5.20
2022-12-28T04:45:25.141Z,5.30
2022-12-28T04:48:14.733Z,5.30
2022-12-28T04:51:08.779Z,5.30
2022-12-28T04:53:57.926Z,5.30
2022-12-28T04:56:46.201Z,5.30
2022-12-28T04:59:34.440Z,5.20
2022-12-28T05:02:22.820Z,5.20
2022-12-28T05:05:12.546Z,5.20
2022-12-28T05:08:02.558Z,5.20
2022-12-28T05:10:50.788Z,5.20
2022-12-28T05:13:39.020Z,5.20
2022-12-28T05:16:29.135Z,5.20
2022-12-28T05:19:17.475Z,5.20
2022-12-28T05:22:11.811Z,5.20
2022-12-28T05:25:00.061Z,5.20
2022-12-28T05:27:48.294Z,5.20
2022-12-28T05:30:36.539Z,5.20
2022-12-28T05:33:24.738Z,5.10
2022-12-28T05:36:15.938Z,5.10
2022-12-28T05:39:05.736Z,5.10
2022-12-28T05:41:53.967Z,5.00
2022-12-28T05:44:42.378Z,5.00
2022-12-28T05:47:30.724Z,5.00
2022-12-28T05:50:18.969Z,5.00
2022-12-28T05:53:07.242Z,4.90
2022-12-28T05:56:01.742Z,5.00
2022-12-28T05:58:54.764Z,4.90
2022-12-28T06:01:45.130Z,5.00
2022-12-28T06:04:33.424Z,5.00
2022-12-28T06:07:21.935Z,5.00
2022-12-28T06:10:10.799Z,4.90
2022-12-28T06:13:00.417Z,5.00
2022-12-28T06:15:48.633Z,5.00
2022-12-28T06:18:37.183Z,5.00
2022-12-28T06:21:27.639Z,5.00
2022-12-28T06:24:18.078Z,5.00
2022-12-28T06:27:06.324Z,5.00
2022-12-28T06:29:55.911Z,5.00
2022-12-28T06:32:44.143Z,5.00
2022-12-28T06:35:32.371Z,5.00
2022-12-28T06:38:20.628Z,5.00
2022-12-28T06:41:13.803Z,5.00
2022-12-28T06:44:03.257Z,5.00
2022-12-28T06:46:52.852Z,5.00
2022-12-28T06:49:41.090Z,5.10
2022-12-28T06:52:29.316Z,5.10
2022-12-28T06:55:17.666Z,5.10
2022-12-28T06:58:05.870Z,5.20
2022-12-28T07:00:54.826Z,5.20
2022-12-28T07:03:45.703Z,5.20
2022-12-28T07:06:37.759Z,5.30
2022-12-28T07:09:26.062Z,5.30
2022-12-28T07:12:14.326Z,5.40
2022-12-28T07:15:02.565Z,5.40
2022-12-28T07:17:50.787Z,5.40
2022-12-28T07:20:40.731Z,5.40
2022-12-28T07:23:31.296Z,5.40
2022-12-28T07:26:21.501Z,5.50
2022-12-28T07:29:10.307Z,5.50
2022-12-28T07:31:58.625Z,5.50
2022-12-28T07:34:46.848Z,5.50
2022-12-28T07:37:36.447Z,5.50
2022-12-28T07:40:24.688Z,5.50
2022-12-28T07:43:12.913Z,5.60
2022-12-28T07:46:02.845Z,5.60
2022-12-28T07:48:52.016Z,5.60
2022-12-28T07:51:40.675Z,5.60
2022-12-28T07:54:30.209Z,5.60
2022-12-28T07:57:18.465Z,5.60
2022-12-28T08:00:08.312Z,5.70
2022-12-28T08:02:57.389Z,5.80
2022-12-28T08:05:45.639Z,5.80
2022-12-28T08:08:36.133Z,5.90
2022-12-28T08:11:28.461Z,5.90
2022-12-28T08:14:16.959Z,5.90
2022-12-28T08:17:05.257Z,6.00
2022-12-28T08:19:55.641Z,6.00
2022-12-28T08:22:43.852Z,6.00
2022-12-28T08:25:32.068Z,6.10
2022-12-28T08:28:21.648Z,6.20
2022-12-28T08:31:11.971Z,6.10
2022-12-28T08:34:01.606Z,6.20
2022-12-28T08:36:50.130Z,6.30
2022-12-28T08:39:38.485Z,6.40
2022-12-28T08:42:26.639Z,6.40
2022-12-28T08:45:16.224Z,6.50
2022-12-28T08:48:05.547Z,6.50
2022-12-28T08:50:54.333Z,6.50
2022-12-28T08:53:43.312Z,6.60
2022-12-28T08:56:33.143Z,6.60
2022-12-28T08:59:21.529Z,6.60
2022-12-28T09:02:14.118Z,6.60
2022-12-28T09:05:02.441Z,6.70
2022-12-28T09:07:56.255Z,6.70
2022-12-28T09:10:47.752Z,6.80
2022-12-28T09:13:36.930Z,6.80
2022-12-28T09:16:28.519Z,6.90
2022-12-28T09:19:18.281Z,6.90
2022-12-28T09:22:06.705Z,7.00
2022-12-28T09:24:55.044Z,7.10
2022-12-28T09:27:43.274Z,7.10
2022-12-28T09:30:31.576Z,7.20
2022-12-28T09:33:57.499Z,7.30
2022-12-28T09:36:46.853Z,7.30
2022-12-28T09:39:35.139Z,7.40
2022-12-28T09:42:28.857Z,7.50
2022-12-28T09:45:27.363Z,7.50
2022-12-28T09:48:19.424Z,7.60
2022-12-28T09:51:07.657Z,7.60
2022-12-28T09:53:57.256Z,7.70
2022-12-28T09:56:48.419Z,7.80
2022-12-28T09:59:37.567Z,7.90
2022-12-28T10:02:30.043Z,7.90
2022-12-28T10:05:18.616Z,8.00
2022-12-28T10:08:07.096Z,8.10
2022-12-28T10:11:01.628Z,8.10
2022-12-28T10:13:55.906Z,8.20
2022-12-28T10:16:48.636Z,8.20
2022-12-28T10:19:37.329Z,8.20
2022-12-28T10:22:31.464Z,8.30
2022-12-28T10:25:21.826Z,8.40
2022-12-28T10:28:12.802Z,8.40
2022-12-28T10:31:06.073Z,8.50
2022-12-28T10:33:54.437Z,8.60
2022-12-28T10:36:43.103Z,8.60
2022-12-28T10:39:32.258Z,8.60
2022-12-28T10:42:24.890Z,8.70
2022-12-28T10:45:20.355Z,8.70
2022-12-28T10:48:16.986Z,8.80
2022-12-28T10:51:14.349Z,8.90
2022-12-28T10:54:02.614Z,8.90
2022-12-28T10:56:51.125Z,8.90
2022-12-28T10:59:40.733Z,9.00
2022-12-28T11:02:32.729Z,9.10
2022-12-28T11:05:24.378Z,9.20
2022-12-28T11:08:15.049Z,9.30
2022-12-28T11:11:03.429Z,9.30
2022-12-28T11:13:56.859Z,9.40
2022-12-28T11:16:45.524Z,9.50
2022-12-28T11:19:35.288Z,9.60
2022-12-28T11:22:26.057Z,9.60
2022-12-28T11:25:17.021Z,9.60
2022-12-28T11:28:13.269Z,9.60
2022-12-28T11:31:02.440Z,9.60
2022-12-28T11:33:53.713Z,9.60
2022-12-28T11:36:43.465Z,9.70
2022-12-28T11:39:41.883Z,9.60
2022-12-28T11:42:55.232Z,9.60
2022-12-28T11:45:53.239Z,9.60
2022-12-28T11:48:57.265Z,9.60
2022-12-28T11:51:46.917Z,9.60
2022-12-28T11:54:39.860Z,9.60
2022-12-28T11:57:37.705Z,9.60
2022-12-28T12:01:00.190Z,9.70
2022-12-28T12:04:24.865Z,9.70
2022-12-28T12:07:31.720Z,9.70
2022-12-28T12:10:36.381Z,9.60
2022-12-28T12:13:44.700Z,9.60
2022-12-28T12:16:43.071Z,9.70
2022-12-28T12:19:34.720Z,9.60
2022-12-28T12:22:27.184Z,9.60
2022-12-28T12:25:23.025Z,9.60
2022-12-28T12:28:25.803Z,9.60
2022-12-28T12:31:20.159Z,9.70
2022-12-28T12:34:19.574Z,9.70
2022-12-28T12:37:28.975Z,9.80
2022-12-28T12:40:43.694Z,9.80
2022-12-28T12:43:40.520Z,9.90
2022-12-28T12:47:06.155Z,9.90
2022-12-28T12:50:27.378Z,9.90
2022-12-28T12:53:31.133Z,9.90
2022-12-28T12:56:36.423Z,10.00
2022-12-28T12:59:54.299Z,10.00
2022-12-28T13:03:06.928Z,10.00
2022-12-28T13:05:57.718Z,10.00
2022-12-28T13:08:50.091Z,10.00
2022-12-28T13:11:40.322Z,9.90
2022-12-28T13:14:29.240Z,9.90
2022-12-28T13:17:20.698Z,10.00
2022-12-28T13:20:10.952Z,10.00
2022-12-28T13:22:59.287Z,10.00
2022-12-28T13:25:51.460Z,10.00
2022-12-28T13:28:48.849Z,10.10
2022-12-28T13:31:42.078Z,10.10
2022-12-28T13:34:33.665Z,10.00
2022-12-28T13:37:22.395Z,9.90
2022-12-28T13:40:11.755Z,10.00
2022-12-28T13:43:21.320Z,9.90
2022-12-28T13:46:13.975Z,9.90
2022-12-28T13:49:02.362Z,9.90
2022-12-28T13:51:53.460Z,9.90
2022-12-28T13:54:46.557Z,9.90
2022-12-28T13:57:47.530Z,9.90
2022-12-28T14:00:40.323Z,9.90
2022-12-28T14:03:28.540Z,9.90
2022-12-28T14:06:19.377Z,9.80
2022-12-28T14:09:10.062Z,9.80
2022-12-28T14:11:58.592Z,9.80
2022-12-28T14:14:47.607Z,9.80
2022-12-28T14:17:38.695Z,9.80
2022-12-28T14:20:26.756Z,9.70
2022-12-28T14:23:23.004Z,9.70
2022-12-28T14:26:20.087Z,9.60
2022-12-28T14:29:14.455Z,9.60
2022-12-28T14:32:05.256Z,9.60
2022-12-28T14:35:00.374Z,9.60
2022-12-28T14:37:53.483Z,9.50
2022-12-28T14:40:42.444Z,9.40
2022-12-28T14:43:32.318Z,9.40
2022-12-28T14:46:32.077Z,9.40
2022-12-28T14:49:34.403Z,9.30
2022-12-28T14:52:44.527Z,9.30
2022-12-28T14:55:38.278Z,9.30
2022-12-28T14:58:28.929Z,9.20
2022-12-28T15:01:17.322Z,9.20
2022-12-28T15:04:07.084Z,9.20
2022-12-28T15:06:55.833Z,9.20
2022-12-28T15:09:46.759Z,9.20
2022-12-28T15:12:35.723Z,9.20
2022-12-28T15:15:24.025Z,9.20
2022-12-28T15:18:12.395Z,9.10
2022-12-28T15:21:05.080Z,9.20
2022-12-28T15:23:54.648Z,9.10
2022-12-28T15:26:44.197Z,9.10
2022-12-28T15:29:56.111Z,9.10
2022-12-28T15:32:40.861Z,9.10
2022-12-28T15:35:29.099Z,9.10
2022-12-28T15:38:17.308Z,9.10
2022-12-28T15:41:25.811Z,9.10
2022-12-28T15:44:17.202Z,9.10
2022-12-28T15:47:05.668Z,9.10
2022-12-28T15:49:53.940Z,9.10
2022-12-28T15:52:42.213Z,9.10
2022-12-28T15:55:31.343Z,9.10
2022-12-28T15:58:19.567Z,9.10
2022-12-28T16:01:09.182Z,9.10
2022-12-28T16:03:59.571Z,9.10
2022-12-28T16:06:47.789Z,9.10
2022-12-28T16:09:35.996Z,9.10
2022-12-28T16:12:24.235Z,9.10
2022-12-28T16:15:12.706Z,9.10
2022-12-28T16:18:02.285Z,9.10
2022-12-28T16:20:50.527Z,9.10
2022-12-28T16:23:40.745Z,9.10
2022-12-28T16:26:29.416Z,9.20
2022-12-28T16:29:18.046Z,9.10
2022-12-28T16:32:06.848Z,9.10
2022-12-28T16:34:56.513Z,9.10
2022-12-28T16:37:44.720Z,9.10
2022-12-28T16:40:33.116Z,9.20
2022-12-28T16:43:21.387Z,9.20
2022-12-28T16:46:10.486Z,9.20
2022-12-28T16:49:01.106Z,9.20
2022-12-28T16:51:50.748Z,9.10
2022-12-28T16:54:38.965Z,9.20
2022-12-28T16:57:27.200Z,9.20
2022-12-28T17:00:15.729Z,9.20
2022-12-28T17:03:04.311Z,9.20
2022-12-28T17:05:53.998Z,9.20
2022-12-28T17:08:43.567Z,9.20
2022-12-28T17:11:31.816Z,9.10
2022-12-28T17:14:36.325Z,9.10
2022-12-28T17:17:25.040Z,9.10
2022-12-28T17:20:13.481Z,9.00
2022-12-28T17:23:01.729Z,8.90
2022-12-28T17:25:53.988Z,8.90
2022-12-28T17:28:42.254Z,8.90
2022-12-28T17:31:30.489Z,8.80
2022-12-28T17:34:18.831Z,8.70
2022-12-28T17:37:07.448Z,8.60
2022-12-28T17:39:56.678Z,8.50
2022-12-28T17:42:46.253Z,8.40
2022-12-28T17:45:36.166Z,8.30
2022-12-28T17:48:27.919Z,8.30
2022-12-28T17:51:16.220Z,8.30
2022-12-28T17:54:04.644Z,8.30
2022-12-28T17:56:52.831Z,8.30
2022-12-28T17:59:42.453Z,8.30
2022-12-28T18:02:30.816Z,8.30
2022-12-28T18:05:19.347Z,8.30
2022-12-28T18:08:07.545Z,8.30
2022-12-28T18:10:55.796Z,8.30
2022-12-28T18:13:45.021Z,8.30
2022-12-28T18:16:34.717Z,8.20
2022-12-28T18:19:23.090Z,8.20
2022-12-28T18:22:11.311Z,8.20
2022-12-28T18:24:59.504Z,8.30
2022-12-28T18:27:47.775Z,8.30
2022-12-28T18:30:36.014Z,8.30
2022-12-28T18:33:25.613Z,8.30
2022-12-28T18:36:17.782Z,8.30
2022-12-28T18:39:06.563Z,8.30
2022-12-28T18:41:54.774Z,8.20
2022-12-28T18:44:43.056Z,8.20
2022-12-28T18:47:33.133Z,8.30
2022-12-28T18:50:22.891Z,8.30
2022-12-28T18:53:11.122Z,8.30
2022-12-28T18:56:00.332Z,8.30
2022-12-28T18:58:52.856Z,8.20
2022-12-28T19:02:06.582Z,8.20
2022-12-28T19:04:52.733Z,8.30
2022-12-28T19:07:49.002Z,8.30
2022-12-28T19:10:37.597Z,8.30
2022-12-28T19:13:25.876Z,8.40
2022-12-28T19:16:16.582Z,8.40
2022-12-28T19:19:04.979Z,8.40
2022-12-28T19:21:58.477Z,8.40
2022-12-28T19:24:48.687Z,8.40
2022-12-28T19:27:36.889Z,8.40
2022-12-28T19:30:25.623Z,8.40
2022-12-28T19:33:13.825Z,8.40
2022-12-28T19:36:02.122Z,8.40
2022-12-28T19:38:50.349Z,8.40
2022-12-28T19:41:39.970Z,8.40
2022-12-28T19:44:28.236Z,8.40
2022-12-28T19:47:16.471Z,8.40
2022-12-28T19:50:05.737Z,8.40
2022-12-28T19:52:54.015Z,8.40
2022-12-28T19:55:42.199Z,8.40
2022-12-28T19:58:33.095Z,8.40
2022-12-28T20:01:24.835Z,8.40
2022-12-28T20:04:14.453Z,8.40
2022-12-28T20:07:02.920Z,8.30
2022-12-28T20:09:51.489Z,8.30
2022-12-28T20:12:39.742Z,8.30
2022-12-28T20:15:29.307Z,8.30
2022-12-28T20:18:17.716Z,8.30
2022-12-28T20:21:23.328Z,8.30
2022-12-28T20:24:13.073Z,8.30
2022-12-28T20:27:01.995Z,8.40
2022-12-28T20:29:50.297Z,8.40
2022-12-28T20:32:44.724Z,8.30
2022-12-28T20:35:33.365Z,8.40
2022-12-28T20:38:21.923Z,8.40
2022-12-28T20:41:34.382Z,8.40
2022-12-28T20:44:25.480Z,8.40
2022-12-28T20:47:14.541Z,8.40
2022-12-28T20:50:04.988Z,8.40
2022-12-28T20:52:54.417Z,8.40
2022-12-28T20:55:42.781Z,8.30
2022-12-28T20:58:30.987Z,8.30
2022-12-28T21:01:19.615Z,8.30
2022-12-28T21:04:08.872Z,8.30
2022-12-28T21:06:58.600Z,8.20
2022-12-28T21:09:50.676Z,8.20
2022-12-28T21:12:39.186Z,8.20
2022-12-28T21:15:27.459Z,8.30
2022-12-28T21:18:15.768Z,8.30
2022-12-28T21:21:12.823Z,8.30
2022-12-28T21:24:04.240Z,8.40
2022-12-28T21:26:52.574Z,8.40
2022-12-28T21:29:40.820Z,8.40
2022-12-28T21:32:29.207Z,8.40
2022-12-28T21:35:17.627Z,8.40
2022-12-28T21:38:06.063Z,8.40
2022-12-28T21:41:03.323Z,8.40
2022-12-28T21:43:51.673Z,8.40
2022-12-28T21:46:40.095Z,8.40
2022-12-28T21:49:31.617Z,8.40
2022-12-28T21:52:30.782Z,8.40
2022-12-28T21:55:36.415Z,8.40
2022-12-28T21:58:30.706Z,8.40
2022-12-28T22:01:36.965Z,8.40
2022-12-28T22:04:43.219Z,8.40
2022-12-28T22:07:32.035Z,8.50
2022-12-28T22:10:56.262Z,8.50
2022-12-28T22:13:46.173Z,8.60
2022-12-28T22:16:35.471Z,8.50
2022-12-28T22:19:24.400Z,8.60
2022-12-28T22:22:12.753Z,8.60
2022-12-28T22:25:03.675Z,8.50
2022-12-28T22:27:52.183Z,8.60
2022-12-28T22:30:42.105Z,8.50
2022-12-28T22:33:30.389Z,8.50
2022-12-28T22:36:19.895Z,8.50
2022-12-28T22:39:08.141Z,8.50
2022-12-28T22:41:56.420Z,8.50
2022-12-28T22:44:48.418Z,8.50
2022-12-28T22:47:38.727Z,8.50
2022-12-28T22:50:30.399Z,8.50
2022-12-28T22:53:21.696Z,8.40
2022-12-28T22:56:15.790Z,8.40
2022-12-28T22:59:05.126Z,8.40
2022-12-28T23:01:53.825Z,8.40
2022-12-28T23:04:43.677Z,8.40
2022-12-28T23:07:32.397Z,8.40
2022-12-28T23:10:23.136Z,8.40
2022-12-28T23:13:11.520Z,8.40
2022-12-28T23:16:00.380Z,8.40
2022-12-28T23:19:06.387Z,8.50
2022-12-28T23:22:13.966Z,8.50
2022-12-28T23:25:19.762Z,8.50
2022-12-28T23:28:11.964Z,8.50
2022-12-28T23:31:00.483Z,8.60
2022-12-28T23:33:48.774Z,8.50
2022-12-28T23:36:37.214Z,8.60
2022-12-28T23:39:27.261Z,8.60
2022-12-28T23:42:15.542Z,8.60
2022-12-28T23:45:03.813Z,8.60
2022-12-28T23:47:54.329Z,8.60
2022-12-28T23:50:47.259Z,8.60
2022-12-28T23:53:35.608Z,8.60
2022-12-28T23:56:30.717Z,8.60
2022-12-28T23:59:21.773Z,8.60
